createdAt,value
2022-07-29T00:01:44.894Z,1.00
2022-07-29T00:04:13.820Z,1.30
2022-07-29T00:06:42.240Z,1.20
2022-07-29T00:09:10.335Z,1.70
2022-07-29T00:11:38.474Z,1.37
2022-07-29T00:14:09.642Z,1.03
2022-07-29T00:16:45.111Z,1.20
2022-07-29T00:19:13.749Z,1.53
2022-07-29T00:21:49.399Z,1.10
2022-07-29T00:24:17.944Z,1.30
2022-07-29T00:26:51.423Z,1.07
2022-07-29T00:29:35.364Z,1.40
2022-07-29T00:32:08.831Z,1.47
2022-07-29T00:34:57.569Z,1.20
2022-07-29T00:37:36.564Z,1.10
2022-07-29T00:40:04.744Z,1.20
2022-07-29T00:42:35.028Z,1.30
2022-07-29T00:47:56.913Z,1.03
2022-07-29T00:50:33.895Z,1.10
2022-07-29T00:53:04.365Z,1.30
2022-07-29T00:55:34.598Z,1.30
2022-07-29T00:58:02.670Z,1.23
2022-07-29T01:00:31.572Z,1.23
2022-07-29T01:03:07.058Z,1.17
2022-07-29T01:05:50.034Z,1.10
2022-07-29T01:08:26.013Z,1.30
2022-07-29T01:10:54.095Z,1.20
2022-07-29T01:13:25.825Z,1.40
2022-07-29T01:15:57.456Z,1.27
2022-07-29T01:18:42.829Z,1.20
2022-07-29T01:21:23.695Z,1.30
2022-07-29T01:24:24.375Z,1.50
2022-07-29T01:26:54.974Z,1.40
2022-07-29T01:29:29.822Z,1.47
2022-07-29T01:32:09.522Z,1.27
2022-07-29T01:34:58.027Z,1.30
2022-07-29T01:37:28.425Z,1.20
2022-07-29T01:39:57.731Z,1.40
2022-07-29T01:42:31.787Z,1.30
2022-07-29T01:45:03.105Z,1.27
2022-07-29T01:47:37.004Z,1.60
2022-07-29T01:50:07.228Z,1.70
2022-07-29T01:52:40.525Z,1.30
2022-07-29T01:55:11.823Z,1.47
2022-07-29T01:57:42.799Z,1.27
2022-07-29T02:00:14.439Z,1.10
2022-07-29T02:02:44.677Z,1.40
2022-07-29T02:05:17.625Z,1.30
2022-07-29T02:07:46.110Z,1.27
2022-07-29T02:10:14.489Z,1.30
2022-07-29T02:12:43.259Z,1.30
2022-07-29T02:15:19.511Z,1.30
2022-07-29T02:17:49.646Z,1.47
2022-07-29T02:20:17.711Z,1.13
2022-07-29T02:22:46.095Z,1.47
2022-07-29T02:25:16.313Z,1.63
2022-07-29T02:27:51.807Z,1.10
2022-07-29T02:30:21.441Z,1.43
2022-07-29T02:32:49.500Z,1.60
2022-07-29T02:35:23.492Z,1.50
2022-07-29T02:38:10.327Z,1.53
2022-07-29T02:40:42.792Z,1.37
2022-07-29T02:43:11.018Z,1.23
2022-07-29T02:45:40.594Z,1.50
2022-07-29T02:48:15.152Z,1.10
2022-07-29T02:50:45.658Z,1.03
2022-07-29T02:53:17.239Z,1.33
2022-07-29T02:55:47.654Z,1.30
2022-07-29T02:58:27.363Z,1.30
2022-07-29T03:00:57.483Z,1.60
2022-07-29T03:03:26.313Z,1.20
2022-07-29T03:05:55.763Z,1.30
2022-07-29T03:08:23.887Z,1.60
2022-07-29T03:10:54.994Z,1.70
2022-07-29T03:13:23.182Z,1.50
2022-07-29T03:15:51.311Z,1.60
2022-07-29T03:18:22.928Z,1.33
2022-07-29T03:20:54.177Z,1.00
2022-07-29T03:23:23.763Z,1.30
2022-07-29T03:25:54.866Z,1.47
2022-07-29T03:28:26.997Z,1.40
2022-07-29T03:30:55.374Z,1.40
2022-07-29T03:33:24.876Z,1.23
2022-07-29T03:35:53.021Z,1.60
2022-07-29T03:38:28.844Z,1.20
2022-07-29T03:41:04.895Z,1.20
2022-07-29T03:43:34.385Z,1.10
2022-07-29T03:46:02.659Z,1.00
2022-07-29T03:48:42.851Z,1.40
2022-07-29T03:51:16.552Z,1.57
2022-07-29T03:53:44.623Z,1.30
2022-07-29T03:56:16.782Z,1.30
2022-07-29T03:58:45.377Z,1.47
2022-07-29T04:01:16.564Z,1.47
2022-07-29T04:03:59.256Z,1.53
2022-07-29T04:06:27.674Z,1.43
2022-07-29T04:09:00.570Z,1.30
2022-07-29T04:11:28.643Z,1.00
2022-07-29T04:13:56.710Z,1.60
2022-07-29T04:16:28.336Z,1.53
2022-07-29T04:18:57.873Z,1.50
2022-07-29T04:21:31.933Z,1.30
2022-07-29T04:24:00.061Z,1.63
2022-07-29T04:26:31.025Z,1.53
2022-07-29T04:29:02.305Z,1.37
2022-07-29T04:31:36.256Z,1.10
2022-07-29T04:34:06.219Z,1.67
2022-07-29T04:36:34.525Z,1.40
2022-07-29T04:39:03.340Z,1.30
2022-07-29T04:41:33.861Z,2.10
2022-07-29T04:44:07.010Z,1.70
2022-07-29T04:46:36.335Z,1.70
2022-07-29T04:49:05.891Z,1.30
2022-07-29T04:51:34.063Z,1.10
2022-07-29T04:54:08.554Z,1.07
2022-07-29T04:56:36.734Z,1.60
2022-07-29T04:59:06.975Z,1.40
2022-07-29T05:01:35.103Z,1.40
2022-07-29T05:04:03.225Z,1.30
2022-07-29T05:06:47.865Z,1.27
2022-07-29T05:09:15.995Z,1.30
2022-07-29T05:11:52.569Z,1.40
2022-07-29T05:14:21.217Z,1.13
2022-07-29T05:16:54.570Z,1.33
2022-07-29T05:19:24.801Z,1.50
2022-07-29T05:21:54.244Z,1.83
2022-07-29T05:27:13.548Z,1.23
2022-07-29T05:29:45.758Z,1.60
2022-07-29T05:32:14.189Z,1.43
2022-07-29T05:34:51.342Z,1.40
2022-07-29T05:37:24.876Z,1.50
2022-07-29T05:39:56.515Z,1.10
2022-07-29T05:42:25.171Z,1.30
2022-07-29T05:44:56.816Z,1.40
2022-07-29T05:47:24.901Z,1.40
2022-07-29T05:49:52.971Z,1.27
2022-07-29T05:52:28.283Z,1.40
2022-07-29T05:54:57.772Z,1.50
2022-07-29T05:57:27.011Z,1.40
2022-07-29T06:00:01.044Z,1.47
2022-07-29T06:02:36.546Z,2.00
2022-07-29T06:05:06.164Z,1.40
2022-07-29T06:07:38.681Z,1.57
2022-07-29T06:10:20.102Z,1.10
2022-07-29T06:12:52.222Z,1.43
2022-07-29T06:15:20.484Z,1.10
2022-07-29T06:17:59.257Z,1.47
2022-07-29T06:20:30.799Z,1.67
2022-07-29T06:23:01.900Z,1.60
2022-07-29T06:25:31.608Z,1.53
2022-07-29T06:28:08.475Z,1.20
2022-07-29T06:30:36.622Z,1.50
2022-07-29T06:33:05.438Z,1.70
2022-07-29T06:35:41.822Z,1.53
2022-07-29T06:38:30.022Z,1.30
2022-07-29T06:41:03.584Z,1.43
2022-07-29T06:43:34.887Z,1.80
2022-07-29T06:46:04.124Z,1.40
2022-07-29T06:48:32.325Z,1.50
2022-07-29T06:51:00.575Z,1.80
2022-07-29T06:53:58.098Z,1.20
2022-07-29T06:56:39.555Z,1.57
2022-07-29T06:59:09.099Z,1.37
2022-07-29T07:01:40.530Z,1.43
2022-07-29T07:04:11.834Z,1.43
2022-07-29T07:06:42.988Z,1.40
2022-07-29T07:09:11.056Z,1.50
2022-07-29T07:11:49.731Z,1.20
2022-07-29T07:14:18.599Z,1.60
2022-07-29T07:16:47.161Z,1.30
2022-07-29T07:19:20.205Z,1.67
2022-07-29T07:21:48.300Z,1.37
2022-07-29T07:24:16.785Z,1.70
2022-07-29T07:26:46.716Z,1.40
2022-07-29T07:29:14.863Z,1.70
2022-07-29T07:31:43.009Z,1.40
2022-07-29T07:34:11.134Z,1.50
2022-07-29T07:36:39.194Z,1.60
2022-07-29T07:39:07.305Z,1.67
2022-07-29T07:41:49.279Z,1.37
2022-07-29T07:44:19.080Z,1.67
2022-07-29T07:46:47.291Z,1.50
2022-07-29T07:49:18.521Z,1.20
2022-07-29T07:51:50.614Z,1.60
2022-07-29T07:54:20.552Z,1.33
2022-07-29T07:56:49.975Z,1.73
2022-07-29T07:59:22.664Z,1.50
2022-07-29T08:01:56.253Z,1.50
2022-07-29T08:04:33.485Z,1.40
2022-07-29T08:07:01.718Z,1.67
2022-07-29T08:09:30.783Z,1.50
2022-07-29T08:11:59.162Z,1.50
2022-07-29T08:14:28.604Z,1.50
2022-07-29T08:16:56.761Z,1.70
2022-07-29T08:19:32.475Z,1.60
2022-07-29T08:22:00.551Z,1.53
2022-07-29T08:24:53.372Z,1.57
2022-07-29T08:27:42.460Z,2.17
2022-07-29T08:30:12.843Z,1.17
2022-07-29T08:32:53.819Z,1.40
2022-07-29T08:35:22.535Z,1.70
2022-07-29T08:40:37.210Z,1.43
2022-07-29T08:43:09.066Z,1.87
2022-07-29T08:45:48.140Z,1.40
2022-07-29T08:48:20.334Z,1.20
2022-07-29T08:51:10.555Z,1.57
2022-07-29T08:53:42.342Z,1.60
2022-07-29T08:56:10.703Z,2.10
2022-07-29T08:58:52.056Z,1.77
2022-07-29T09:01:35.533Z,1.50
2022-07-29T09:04:06.174Z,1.63
2022-07-29T09:06:36.509Z,2.20
2022-07-29T09:09:07.218Z,1.53
2022-07-29T09:11:35.485Z,1.60
2022-07-29T09:14:05.675Z,1.30
2022-07-29T09:16:55.568Z,1.93
2022-07-29T09:19:25.163Z,1.63
2022-07-29T09:22:03.310Z,2.10
2022-07-29T09:24:45.229Z,1.53
2022-07-29T09:27:22.236Z,1.40
2022-07-29T09:29:58.289Z,1.90
2022-07-29T09:32:28.381Z,1.50
2022-07-29T09:35:18.881Z,1.83
2022-07-29T09:37:47.281Z,1.63
2022-07-29T09:40:16.897Z,1.60
2022-07-29T09:42:45.209Z,1.70
2022-07-29T09:45:13.430Z,1.60
2022-07-29T09:47:50.294Z,1.77
2022-07-29T09:50:20.769Z,1.40
2022-07-29T09:52:53.179Z,1.80
2022-07-29T09:55:25.069Z,1.50
2022-07-29T09:57:53.110Z,2.03
2022-07-29T10:00:24.045Z,1.67
2022-07-29T10:02:56.375Z,1.60
2022-07-29T10:05:25.989Z,1.80
2022-07-29T10:07:57.182Z,1.93
2022-07-29T10:10:27.467Z,1.90
2022-07-29T10:13:07.115Z,1.53
2022-07-29T10:15:40.356Z,1.80
2022-07-29T10:18:10.033Z,1.90
2022-07-29T10:20:38.572Z,2.03
2022-07-29T10:23:06.815Z,1.70
2022-07-29T10:25:34.964Z,1.73
2022-07-29T10:28:03.834Z,1.83
2022-07-29T10:30:38.306Z,1.80
2022-07-29T10:33:32.159Z,1.63
2022-07-29T10:36:17.662Z,1.70
2022-07-29T10:38:52.686Z,1.57
2022-07-29T10:42:04.746Z,1.60
2022-07-29T10:44:33.183Z,1.70
2022-07-29T10:47:01.718Z,1.50
2022-07-29T10:49:31.409Z,2.10
2022-07-29T10:52:05.973Z,1.90
2022-07-29T10:54:51.618Z,1.83
2022-07-29T10:57:52.409Z,1.83
2022-07-29T11:00:32.570Z,1.70
2022-07-29T11:03:10.472Z,1.77
2022-07-29T11:06:03.347Z,2.00
2022-07-29T11:08:53.096Z,1.57
2022-07-29T11:11:44.102Z,2.37
2022-07-29T11:14:52.689Z,1.60
2022-07-29T11:17:20.734Z,1.80
2022-07-29T11:19:52.275Z,1.63
2022-07-29T11:22:35.214Z,2.17
2022-07-29T11:25:16.826Z,2.07
2022-07-29T11:30:52.785Z,1.70
2022-07-29T11:33:54.589Z,1.77
2022-07-29T11:36:27.929Z,1.77
2022-07-29T11:39:12.834Z,1.50
2022-07-29T11:41:49.530Z,1.70
2022-07-29T11:44:18.204Z,1.90
2022-07-29T11:46:48.046Z,2.07
2022-07-29T11:49:18.373Z,1.57
2022-07-29T11:51:53.062Z,1.83
2022-07-29T11:54:28.899Z,2.10
2022-07-29T11:56:57.092Z,1.77
2022-07-29T11:59:33.479Z,1.87
2022-07-29T12:02:33.255Z,1.47
2022-07-29T12:04:52.149Z,1.57
2022-07-29T12:07:20.492Z,2.10
2022-07-29T12:09:53.958Z,2.30
2022-07-29T12:12:25.113Z,1.70
2022-07-29T12:14:53.180Z,1.90
2022-07-29T12:17:31.305Z,1.93
2022-07-29T12:20:01.054Z,1.80
2022-07-29T12:22:32.438Z,2.10
2022-07-29T12:25:32.430Z,1.93
2022-07-29T12:28:01.963Z,1.93
2022-07-29T12:30:45.084Z,1.90
2022-07-29T12:33:26.188Z,1.90
2022-07-29T12:36:06.840Z,1.90
2022-07-29T12:38:36.928Z,2.03
2022-07-29T12:41:06.375Z,1.40
2022-07-29T12:43:34.546Z,1.67
2022-07-29T12:46:14.361Z,1.87
2022-07-29T12:48:43.175Z,1.70
2022-07-29T12:51:12.853Z,2.03
2022-07-29T12:53:41.179Z,1.73
2022-07-29T12:59:24.690Z,1.87
2022-07-29T13:02:01.294Z,1.53
2022-07-29T13:04:38.783Z,1.80
2022-07-29T13:07:15.155Z,1.90
2022-07-29T13:09:44.665Z,1.83
2022-07-29T13:12:15.141Z,1.60
2022-07-29T13:14:44.329Z,1.40
2022-07-29T13:17:13.554Z,1.80
2022-07-29T13:19:45.309Z,1.60
2022-07-29T13:22:17.552Z,1.60
2022-07-29T13:24:49.624Z,1.40
2022-07-29T13:27:19.148Z,1.40
2022-07-29T13:29:47.475Z,1.60
2022-07-29T13:32:30.153Z,1.47
2022-07-29T13:34:58.425Z,1.57
2022-07-29T13:37:30.751Z,1.40
2022-07-29T13:40:00.246Z,1.47
2022-07-29T13:42:29.920Z,1.47
2022-07-29T13:44:57.969Z,1.30
2022-07-29T13:47:32.835Z,1.70
2022-07-29T13:50:01.400Z,1.70
2022-07-29T13:52:29.564Z,1.73
2022-07-29T13:54:57.885Z,1.50
2022-07-29T13:57:26.035Z,1.63
2022-07-29T13:59:55.468Z,1.53
2022-07-29T14:02:27.048Z,1.57
2022-07-29T14:05:11.397Z,1.70
2022-07-29T14:07:48.383Z,1.67
2022-07-29T14:10:20.308Z,1.63
2022-07-29T14:12:48.482Z,1.50
2022-07-29T14:15:18.357Z,1.43
2022-07-29T14:17:52.485Z,1.67
2022-07-29T14:20:21.241Z,1.40
2022-07-29T14:22:49.427Z,1.50
2022-07-29T14:25:18.439Z,1.53
2022-07-29T14:28:03.179Z,1.60
2022-07-29T14:30:32.778Z,1.80
2022-07-29T14:33:00.846Z,2.10
2022-07-29T14:35:31.832Z,1.50
2022-07-29T14:37:59.925Z,1.93
2022-07-29T14:40:33.998Z,1.80
2022-07-29T14:43:04.914Z,2.00
2022-07-29T14:45:40.241Z,1.70
2022-07-29T14:48:08.442Z,1.87
2022-07-29T14:50:36.712Z,1.47
2022-07-29T14:53:26.114Z,1.70
2022-07-29T14:55:54.991Z,1.73
2022-07-29T14:58:31.954Z,1.70
2022-07-29T15:01:10.746Z,1.70
2022-07-29T15:03:44.951Z,1.50
2022-07-29T15:06:13.913Z,1.60
2022-07-29T15:08:56.629Z,2.10
2022-07-29T15:11:24.774Z,1.80
2022-07-29T15:14:00.323Z,1.47
2022-07-29T15:16:29.895Z,1.53
2022-07-29T15:19:01.447Z,1.50
2022-07-29T15:21:32.450Z,1.90
2022-07-29T15:24:02.717Z,1.53
2022-07-29T15:26:31.288Z,1.80
2022-07-29T15:29:03.845Z,1.70
2022-07-29T15:31:36.586Z,1.60
2022-07-29T15:34:07.580Z,1.70
2022-07-29T15:36:52.169Z,1.83
2022-07-29T15:39:21.199Z,1.90
2022-07-29T15:41:49.250Z,1.83
2022-07-29T15:44:17.377Z,1.70
2022-07-29T15:47:05.027Z,1.77
2022-07-29T15:49:47.718Z,2.00
2022-07-29T15:52:17.698Z,1.57
2022-07-29T15:54:51.623Z,1.93
2022-07-29T15:57:22.486Z,1.90
2022-07-29T15:59:50.577Z,1.60
2022-07-29T16:02:20.165Z,1.70
2022-07-29T16:04:48.245Z,1.83
2022-07-29T16:07:24.386Z,1.63
2022-07-29T16:10:02.373Z,1.70
2022-07-29T16:12:50.156Z,1.70
2022-07-29T16:15:18.267Z,2.10
2022-07-29T16:18:04.038Z,1.77
2022-07-29T16:20:32.105Z,1.80
2022-07-29T16:23:00.996Z,1.50
2022-07-29T16:25:58.249Z,1.70
2022-07-29T16:28:17.585Z,1.70
2022-07-29T16:31:01.403Z,1.90
2022-07-29T16:33:54.987Z,1.63
2022-07-29T16:36:29.738Z,1.90
2022-07-29T16:38:57.854Z,1.83
2022-07-29T16:41:26.010Z,1.87
2022-07-29T16:43:55.354Z,1.90
2022-07-29T16:46:24.370Z,2.57
2022-07-29T16:48:55.793Z,1.60
2022-07-29T16:51:24.414Z,2.10
2022-07-29T16:53:52.471Z,1.80
2022-07-29T16:56:20.531Z,1.77
2022-07-29T16:58:48.576Z,1.90
2022-07-29T17:01:17.299Z,1.80
2022-07-29T17:04:00.379Z,1.60
2022-07-29T17:06:30.158Z,1.97
2022-07-29T17:09:01.128Z,1.80
2022-07-29T17:11:53.924Z,1.80
2022-07-29T17:14:23.330Z,1.93
2022-07-29T17:17:02.228Z,1.97
2022-07-29T17:19:35.749Z,2.03
2022-07-29T17:22:12.909Z,2.03
2022-07-29T17:24:45.417Z,2.03
2022-07-29T17:27:13.786Z,1.60
2022-07-29T17:29:41.890Z,1.80
2022-07-29T17:32:24.229Z,1.50
2022-07-29T17:34:52.321Z,2.00
2022-07-29T17:37:20.745Z,1.87
2022-07-29T17:39:49.084Z,2.10
2022-07-29T17:42:17.512Z,1.73
2022-07-29T17:45:05.506Z,1.60
2022-07-29T17:48:05.085Z,1.93
2022-07-29T17:50:49.147Z,1.67
2022-07-29T17:56:59.767Z,1.90
2022-07-29T17:59:28.217Z,1.87
2022-07-29T18:02:02.345Z,1.73
2022-07-29T18:04:31.565Z,1.80
2022-07-29T18:07:00.050Z,1.60
2022-07-29T18:09:28.335Z,1.60
2022-07-29T18:11:56.404Z,1.60
2022-07-29T18:14:25.855Z,2.03
2022-07-29T18:16:53.915Z,1.90
2022-07-29T18:19:27.268Z,1.77
2022-07-29T18:21:57.325Z,1.83
2022-07-29T18:24:35.467Z,1.70
2022-07-29T18:27:03.529Z,1.80
2022-07-29T18:29:32.996Z,1.90
2022-07-29T18:32:01.647Z,1.73
2022-07-29T18:34:29.766Z,2.43
2022-07-29T18:36:57.996Z,2.00
2022-07-29T18:39:26.256Z,1.57
2022-07-29T18:41:54.344Z,1.77
2022-07-29T18:44:22.721Z,1.80
2022-07-29T18:46:52.959Z,1.63
2022-07-29T18:49:21.085Z,2.00
2022-07-29T18:51:49.222Z,2.10
2022-07-29T18:54:17.657Z,1.77
2022-07-29T18:56:45.917Z,1.67
2022-07-29T18:59:17.123Z,1.70
2022-07-29T19:01:53.017Z,1.90
2022-07-29T19:04:24.229Z,1.53
2022-07-29T19:06:52.322Z,1.83
2022-07-29T19:09:20.410Z,1.83
2022-07-29T19:11:51.937Z,2.00
2022-07-29T19:14:22.274Z,1.80
2022-07-29T19:16:52.789Z,1.77
2022-07-29T19:19:20.863Z,2.00
2022-07-29T19:21:49.320Z,1.70
2022-07-29T19:24:17.405Z,1.77
2022-07-29T19:26:46.880Z,2.00
2022-07-29T19:29:15.163Z,1.87
2022-07-29T19:31:43.375Z,1.90
2022-07-29T19:34:12.893Z,1.77
2022-07-29T19:36:41.855Z,2.40
2022-07-29T19:39:34.794Z,1.73
2022-07-29T19:42:03.604Z,1.90
2022-07-29T19:44:45.673Z,1.83
2022-07-29T19:47:17.314Z,1.60
2022-07-29T19:49:46.994Z,1.80
2022-07-29T19:52:15.046Z,1.70
2022-07-29T19:54:43.188Z,1.87
2022-07-29T19:57:17.095Z,1.83
2022-07-29T19:59:54.919Z,1.83
2022-07-29T20:02:24.365Z,1.80
2022-07-29T20:05:09.968Z,2.07
2022-07-29T20:07:38.047Z,1.97
2022-07-29T20:10:12.154Z,1.93
2022-07-29T20:12:42.630Z,2.20
2022-07-29T20:15:17.582Z,2.00
2022-07-29T20:17:48.474Z,2.10
2022-07-29T20:20:24.169Z,2.53
2022-07-29T20:22:52.522Z,2.60
2022-07-29T20:25:20.617Z,1.90
2022-07-29T20:27:52.229Z,2.50
2022-07-29T20:30:20.358Z,3.10
2022-07-29T20:32:49.227Z,2.70
2022-07-29T20:35:17.309Z,2.60
2022-07-29T20:37:55.733Z,2.63
2022-07-29T20:40:25.391Z,2.13
2022-07-29T20:42:53.521Z,2.73
2022-07-29T20:45:37.060Z,2.30
2022-07-29T20:51:01.740Z,2.80
2022-07-29T20:53:34.568Z,2.77
2022-07-29T20:56:02.677Z,2.73
2022-07-29T20:58:34.118Z,2.77
2022-07-29T21:01:05.084Z,2.47
2022-07-29T21:03:36.290Z,2.40
2022-07-29T21:06:04.526Z,2.83
2022-07-29T21:08:39.462Z,2.97
2022-07-29T21:11:07.934Z,2.43
2022-07-29T21:13:38.459Z,2.50
2022-07-29T21:16:14.794Z,2.70
2022-07-29T21:18:43.928Z,3.33
2022-07-29T21:21:11.991Z,2.70
2022-07-29T21:23:41.464Z,2.90
2022-07-29T21:26:12.803Z,3.23
2022-07-29T21:28:40.690Z,3.10
2022-07-29T21:31:10.473Z,3.13
2022-07-29T21:33:38.599Z,2.77
2022-07-29T21:36:35.547Z,3.00
2022-07-29T21:39:09.606Z,3.40
2022-07-29T21:41:38.196Z,3.17
2022-07-29T21:44:12.213Z,2.90
2022-07-29T21:46:40.323Z,2.73
2022-07-29T21:49:08.417Z,3.00
2022-07-29T21:51:36.506Z,2.70
2022-07-29T21:54:16.615Z,2.83
2022-07-29T21:56:45.220Z,3.27
2022-07-29T21:59:22.335Z,3.67
2022-07-29T22:02:01.169Z,3.13
2022-07-29T22:04:29.506Z,3.00
2022-07-29T22:06:58.306Z,2.90
2022-07-29T22:09:27.985Z,3.13
2022-07-29T22:11:56.706Z,2.93
2022-07-29T22:14:29.677Z,2.97
2022-07-29T22:17:04.219Z,2.87
2022-07-29T22:19:32.575Z,3.43
2022-07-29T22:22:04.701Z,2.70
2022-07-29T22:24:34.231Z,2.83
2022-07-29T22:27:02.595Z,3.17
2022-07-29T22:29:30.966Z,3.20
2022-07-29T22:31:59.052Z,3.07
2022-07-29T22:34:29.103Z,3.20
2022-07-29T22:37:05.346Z,3.00
2022-07-29T22:39:35.339Z,3.10
2022-07-29T22:42:08.863Z,3.00
2022-07-29T22:44:36.893Z,3.07
2022-07-29T22:47:05.622Z,3.10
2022-07-29T22:49:40.869Z,2.70
2022-07-29T22:52:09.982Z,3.07
2022-07-29T22:54:39.414Z,3.13
2022-07-29T22:57:07.782Z,3.23
2022-07-29T22:59:35.897Z,3.20
2022-07-29T23:02:04.057Z,3.40
2022-07-29T23:04:32.218Z,3.50
2022-07-29T23:07:10.180Z,3.10
2022-07-29T23:09:39.614Z,3.40
2022-07-29T23:12:08.357Z,3.00
2022-07-29T23:14:53.257Z,3.20
2022-07-29T23:17:21.337Z,3.37
2022-07-29T23:19:52.201Z,3.33
2022-07-29T23:22:26.197Z,3.50
2022-07-29T23:24:55.703Z,3.00
2022-07-29T23:27:31.029Z,3.03
2022-07-29T23:30:12.945Z,3.77
2022-07-29T23:32:41.019Z,3.30
2022-07-29T23:35:15.135Z,3.33
2022-07-29T23:37:59.119Z,3.40
2022-07-29T23:40:36.691Z,3.40
2022-07-29T23:43:08.806Z,2.97
2022-07-29T23:45:44.750Z,3.47
2022-07-29T23:48:16.677Z,3.37
2022-07-29T23:50:44.750Z,3.30
2022-07-29T23:53:13.167Z,3.10
2022-07-29T23:55:42.800Z,3.20
2022-07-29T23:58:10.870Z,3.20
